sensor_id;sensor_type;location;lat;lon;timestamp;P1;durP1;ratioP1;P2;durP2;ratioP2
35917;SDS011;22011;59.912;30.300;2024-03-08T00:00:57;6.00;;;3.58;;
35917;SDS011;22011;59.912;30.300;2024-03-08T00:03:25;6.93;;;4.68;;
35917;SDS011;22011;59.912;30.300;2024-03-08T00:05:54;10.25;;;5.03;;
35917;SDS011;22011;59.912;30.300;2024-03-08T00:08:24;6.68;;;4.75;;
35917;SDS011;22011;59.912;30.300;2024-03-08T00:10:52;6.32;;;4.20;;
35917;SDS011;22011;59.912;30.300;2024-03-08T00:13:20;6.93;;;4.50;;
35917;SDS011;22011;59.912;30.300;2024-03-08T00:15:47;7.93;;;4.75;;
35917;SDS011;22011;59.912;30.300;2024-03-08T00:18:15;6.10;;;4.28;;
35917;SDS011;22011;59.912;30.300;2024-03-08T00:20:43;5.32;;;4.20;;
35917;SDS011;22011;59.912;30.300;2024-03-08T00:23:11;6.70;;;4.47;;
35917;SDS011;22011;59.912;30.300;2024-03-08T00:25:40;7.63;;;5.18;;
35917;SDS011;22011;59.912;30.300;2024-03-08T00:28:07;7.57;;;4.18;;
35917;SDS011;22011;59.912;30.300;2024-03-08T00:30:39;6.35;;;3.88;;
35917;SDS011;22011;59.912;30.300;2024-03-08T00:33:07;7.32;;;4.78;;
35917;SDS011;22011;59.912;30.300;2024-03-08T00:35:34;6.30;;;4.70;;
35917;SDS011;22011;59.912;30.300;2024-03-08T00:38:02;8.43;;;4.93;;
35917;SDS011;22011;59.912;30.300;2024-03-08T00:40:30;6.88;;;4.63;;
35917;SDS011;22011;59.912;30.300;2024-03-08T00:42:59;6.22;;;4.28;;
35917;SDS011;22011;59.912;30.300;2024-03-08T00:45:29;7.22;;;4.47;;
35917;SDS011;22011;59.912;30.300;2024-03-08T00:47:57;7.45;;;4.50;;
35917;SDS011;22011;59.912;30.300;2024-03-08T00:50:25;6.15;;;4.20;;
35917;SDS011;22011;59.912;30.300;2024-03-08T00:52:52;6.45;;;4.15;;
35917;SDS011;22011;59.912;30.300;2024-03-08T00:55:20;9.07;;;4.93;;
35917;SDS011;22011;59.912;30.300;2024-03-08T00:57:48;5.95;;;4.30;;
35917;SDS011;22011;59.912;30.300;2024-03-08T01:00:18;9.45;;;5.03;;
35917;SDS011;22011;59.912;30.300;2024-03-08T01:02:47;5.93;;;3.67;;
35917;SDS011;22011;59.912;30.300;2024-03-08T01:05:15;5.25;;;4.13;;
35917;SDS011;22011;59.912;30.300;2024-03-08T01:07:42;6.60;;;3.58;;
35917;SDS011;22011;59.912;30.300;2024-03-08T01:10:12;6.73;;;4.20;;
35917;SDS011;22011;59.912;30.300;2024-03-08T01:12:40;5.57;;;3.85;;
35917;SDS011;22011;59.912;30.300;2024-03-08T01:15:09;7.15;;;4.30;;
35917;SDS011;22011;59.912;30.300;2024-03-08T01:17:38;5.57;;;3.92;;
35917;SDS011;22011;59.912;30.300;2024-03-08T01:20:07;8.40;;;4.25;;
35917;SDS011;22011;59.912;30.300;2024-03-08T01:22:36;6.38;;;3.70;;
35917;SDS011;22011;59.912;30.300;2024-03-08T01:25:04;6.47;;;4.57;;
35917;SDS011;22011;59.912;30.300;2024-03-08T01:27:34;7.25;;;4.55;;
35917;SDS011;22011;59.912;30.300;2024-03-08T01:30:03;5.60;;;4.05;;
35917;SDS011;22011;59.912;30.300;2024-03-08T01:32:31;6.13;;;4.25;;
35917;SDS011;22011;59.912;30.300;2024-03-08T01:35:01;7.32;;;4.15;;
35917;SDS011;22011;59.912;30.300;2024-03-08T01:37:28;5.57;;;3.65;;
35917;SDS011;22011;59.912;30.300;2024-03-08T01:39:56;5.30;;;3.95;;
35917;SDS011;22011;59.912;30.300;2024-03-08T01:42:24;5.25;;;3.53;;
35917;SDS011;22011;59.912;30.300;2024-03-08T01:44:52;7.82;;;4.50;;
35917;SDS011;22011;59.912;30.300;2024-03-08T01:47:20;5.95;;;4.38;;
35917;SDS011;22011;59.912;30.300;2024-03-08T01:49:49;6.38;;;4.35;;
35917;SDS011;22011;59.912;30.300;2024-03-08T01:52:18;6.43;;;4.22;;
35917;SDS011;22011;59.912;30.300;2024-03-08T01:54:49;7.35;;;4.53;;
35917;SDS011;22011;59.912;30.300;2024-03-08T01:57:17;8.13;;;4.75;;
35917;SDS011;22011;59.912;30.300;2024-03-08T01:59:45;5.63;;;4.18;;
35917;SDS011;22011;59.912;30.300;2024-03-08T02:02:14;7.15;;;4.82;;
35917;SDS011;22011;59.912;30.300;2024-03-08T02:07:11;6.20;;;3.50;;
35917;SDS011;22011;59.912;30.300;2024-03-08T02:09:40;5.22;;;3.70;;
35917;SDS011;22011;59.912;30.300;2024-03-08T02:12:08;6.05;;;3.60;;
35917;SDS011;22011;59.912;30.300;2024-03-08T02:17:07;5.18;;;3.97;;
35917;SDS011;22011;59.912;30.300;2024-03-08T02:19:34;5.00;;;3.38;;
35917;SDS011;22011;59.912;30.300;2024-03-08T02:22:04;6.57;;;3.90;;
35917;SDS011;22011;59.912;30.300;2024-03-08T02:24:32;5.28;;;3.38;;
35917;SDS011;22011;59.912;30.300;2024-03-08T02:27:00;6.95;;;3.13;;
35917;SDS011;22011;59.912;30.300;2024-03-08T02:29:28;6.43;;;3.90;;
35917;SDS011;22011;59.912;30.300;2024-03-08T02:31:57;5.03;;;3.38;;
35917;SDS011;22011;59.912;30.300;2024-03-08T02:34:25;4.03;;;3.40;;
35917;SDS011;22011;59.912;30.300;2024-03-08T02:36:53;7.53;;;3.40;;
35917;SDS011;22011;59.912;30.300;2024-03-08T02:39:23;4.37;;;3.37;;
35917;SDS011;22011;59.912;30.300;2024-03-08T02:41:51;5.10;;;3.27;;
35917;SDS011;22011;59.912;30.300;2024-03-08T02:44:19;5.60;;;3.53;;
35917;SDS011;22011;59.912;30.300;2024-03-08T02:46:47;4.50;;;3.28;;
35917;SDS011;22011;59.912;30.300;2024-03-08T02:49:16;5.03;;;3.13;;
35917;SDS011;22011;59.912;30.300;2024-03-08T02:51:44;6.70;;;3.55;;
35917;SDS011;22011;59.912;30.300;2024-03-08T02:54:12;5.35;;;3.20;;
35917;SDS011;22011;59.912;30.300;2024-03-08T02:56:41;4.47;;;3.33;;
35917;SDS011;22011;59.912;30.300;2024-03-08T02:59:08;4.40;;;3.22;;
35917;SDS011;22011;59.912;30.300;2024-03-08T03:01:36;4.35;;;2.67;;
35917;SDS011;22011;59.912;30.300;2024-03-08T03:04:04;4.95;;;3.10;;
35917;SDS011;22011;59.912;30.300;2024-03-08T03:06:32;4.82;;;3.03;;
35917;SDS011;22011;59.912;30.300;2024-03-08T03:08:59;4.65;;;3.05;;
35917;SDS011;22011;59.912;30.300;2024-03-08T03:11:27;3.53;;;2.80;;
35917;SDS011;22011;59.912;30.300;2024-03-08T03:13:56;4.55;;;2.97;;
35917;SDS011;22011;59.912;30.300;2024-03-08T03:16:24;5.40;;;2.88;;
35917;SDS011;22011;59.912;30.300;2024-03-08T03:18:52;5.30;;;2.80;;
35917;SDS011;22011;59.912;30.300;2024-03-08T03:21:19;3.60;;;2.13;;
35917;SDS011;22011;59.912;30.300;2024-03-08T03:23:47;4.35;;;2.50;;
35917;SDS011;22011;59.912;30.300;2024-03-08T03:26:15;5.10;;;2.97;;
35917;SDS011;22011;59.912;30.300;2024-03-08T03:28:43;5.10;;;2.95;;
35917;SDS011;22011;59.912;30.300;2024-03-08T03:31:12;3.67;;;2.40;;
35917;SDS011;22011;59.912;30.300;2024-03-08T03:33:40;3.13;;;2.35;;
35917;SDS011;22011;59.912;30.300;2024-03-08T03:36:08;3.90;;;2.50;;
35917;SDS011;22011;59.912;30.300;2024-03-08T03:38:37;4.40;;;2.72;;
35917;SDS011;22011;59.912;30.300;2024-03-08T03:41:05;3.42;;;2.40;;
35917;SDS011;22011;59.912;30.300;2024-03-08T03:43:36;3.95;;;2.38;;
35917;SDS011;22011;59.912;30.300;2024-03-08T03:46:05;3.90;;;2.50;;
35917;SDS011;22011;59.912;30.300;2024-03-08T03:48:37;2.60;;;1.83;;
35917;SDS011;22011;59.912;30.300;2024-03-08T03:51:05;2.45;;;2.05;;
35917;SDS011;22011;59.912;30.300;2024-03-08T03:53:33;3.95;;;1.88;;
35917;SDS011;22011;59.912;30.300;2024-03-08T03:56:01;3.28;;;2.30;;
35917;SDS011;22011;59.912;30.300;2024-03-08T03:58:31;3.13;;;1.88;;
35917;SDS011;22011;59.912;30.300;2024-03-08T04:00:59;3.25;;;2.03;;
35917;SDS011;22011;59.912;30.300;2024-03-08T04:03:26;3.47;;;1.90;;
35917;SDS011;22011;59.912;30.300;2024-03-08T04:05:55;3.55;;;2.40;;
35917;SDS011;22011;59.912;30.300;2024-03-08T04:08:23;2.67;;;2.03;;
35917;SDS011;22011;59.912;30.300;2024-03-08T04:10:51;3.55;;;2.33;;
35917;SDS011;22011;59.912;30.300;2024-03-08T04:13:18;3.78;;;2.22;;
35917;SDS011;22011;59.912;30.300;2024-03-08T04:15:47;2.60;;;1.95;;
35917;SDS011;22011;59.912;30.300;2024-03-08T04:18:15;3.67;;;2.00;;
35917;SDS011;22011;59.912;30.300;2024-03-08T04:20:44;3.60;;;2.15;;
35917;SDS011;22011;59.912;30.300;2024-03-08T04:23:13;3.17;;;2.00;;
35917;SDS011;22011;59.912;30.300;2024-03-08T04:25:41;2.63;;;1.88;;
35917;SDS011;22011;59.912;30.300;2024-03-08T04:28:09;3.45;;;2.35;;
35917;SDS011;22011;59.912;30.300;2024-03-08T04:30:37;2.95;;;2.05;;
35917;SDS011;22011;59.912;30.300;2024-03-08T04:33:05;1.98;;;1.77;;
35917;SDS011;22011;59.912;30.300;2024-03-08T04:35:34;3.25;;;2.05;;
35917;SDS011;22011;59.912;30.300;2024-03-08T04:38:02;3.45;;;2.00;;
35917;SDS011;22011;59.912;30.300;2024-03-08T04:40:32;2.53;;;1.88;;
35917;SDS011;22011;59.912;30.300;2024-03-08T04:43:00;3.88;;;1.95;;
35917;SDS011;22011;59.912;30.300;2024-03-08T04:45:28;2.13;;;1.67;;
35917;SDS011;22011;59.912;30.300;2024-03-08T04:47:55;3.83;;;1.95;;
35917;SDS011;22011;59.912;30.300;2024-03-08T04:50:23;2.42;;;1.80;;
35917;SDS011;22011;59.912;30.300;2024-03-08T04:52:51;3.70;;;1.80;;
35917;SDS011;22011;59.912;30.300;2024-03-08T04:55:18;2.47;;;1.70;;
35917;SDS011;22011;59.912;30.300;2024-03-08T04:57:48;3.83;;;2.25;;
35917;SDS011;22011;59.912;30.300;2024-03-08T05:00:16;2.75;;;1.90;;
35917;SDS011;22011;59.912;30.300;2024-03-08T05:02:45;1.80;;;1.63;;
35917;SDS011;22011;59.912;30.300;2024-03-08T05:05:12;1.65;;;1.30;;
35917;SDS011;22011;59.912;30.300;2024-03-08T05:07:41;2.08;;;1.77;;
35917;SDS011;22011;59.912;30.300;2024-03-08T05:10:11;2.45;;;1.83;;
35917;SDS011;22011;59.912;30.300;2024-03-08T05:12:43;2.42;;;1.63;;
35917;SDS011;22011;59.912;30.300;2024-03-08T05:15:12;3.42;;;1.77;;
35917;SDS011;22011;59.912;30.300;2024-03-08T05:17:40;2.00;;;1.50;;
35917;SDS011;22011;59.912;30.300;2024-03-08T05:20:08;2.08;;;1.38;;
35917;SDS011;22011;59.912;30.300;2024-03-08T05:22:39;2.40;;;1.80;;
35917;SDS011;22011;59.912;30.300;2024-03-08T05:25:07;2.35;;;1.58;;
35917;SDS011;22011;59.912;30.300;2024-03-08T05:27:36;2.50;;;1.42;;
35917;SDS011;22011;59.912;30.300;2024-03-08T05:30:04;2.53;;;1.60;;
35917;SDS011;22011;59.912;30.300;2024-03-08T05:32:34;2.25;;;1.40;;
35917;SDS011;22011;59.912;30.300;2024-03-08T05:35:01;1.73;;;1.45;;
35917;SDS011;22011;59.912;30.300;2024-03-08T05:37:33;2.03;;;1.50;;
35917;SDS011;22011;59.912;30.300;2024-03-08T05:40:00;1.90;;;1.60;;
35917;SDS011;22011;59.912;30.300;2024-03-08T05:42:29;3.20;;;1.92;;
35917;SDS011;22011;59.912;30.300;2024-03-08T05:44:56;3.35;;;1.73;;
35917;SDS011;22011;59.912;30.300;2024-03-08T05:47:24;2.63;;;1.50;;
35917;SDS011;22011;59.912;30.300;2024-03-08T05:49:54;3.65;;;1.70;;
35917;SDS011;22011;59.912;30.300;2024-03-08T05:52:21;1.90;;;1.50;;
35917;SDS011;22011;59.912;30.300;2024-03-08T05:54:49;2.72;;;1.67;;
35917;SDS011;22011;59.912;30.300;2024-03-08T05:57:17;2.53;;;1.52;;
35917;SDS011;22011;59.912;30.300;2024-03-08T05:59:45;3.05;;;1.35;;
35917;SDS011;22011;59.912;30.300;2024-03-08T06:02:13;2.67;;;1.73;;
35917;SDS011;22011;59.912;30.300;2024-03-08T06:04:45;2.85;;;1.70;;
35917;SDS011;22011;59.912;30.300;2024-03-08T06:07:14;2.08;;;1.77;;
35917;SDS011;22011;59.912;30.300;2024-03-08T06:09:43;4.82;;;1.80;;
35917;SDS011;22011;59.912;30.300;2024-03-08T06:12:12;6.32;;;1.63;;
35917;SDS011;22011;59.912;30.300;2024-03-08T06:14:44;2.28;;;1.60;;
35917;SDS011;22011;59.912;30.300;2024-03-08T06:17:12;2.60;;;1.30;;
35917;SDS011;22011;59.912;30.300;2024-03-08T06:19:40;1.73;;;1.42;;
35917;SDS011;22011;59.912;30.300;2024-03-08T06:22:07;6.55;;;1.70;;
35917;SDS011;22011;59.912;30.300;2024-03-08T06:24:36;6.40;;;2.75;;
35917;SDS011;22011;59.912;30.300;2024-03-08T06:27:04;3.65;;;2.78;;
35917;SDS011;22011;59.912;30.300;2024-03-08T06:29:32;4.25;;;2.47;;
35917;SDS011;22011;59.912;30.300;2024-03-08T06:31:59;4.13;;;2.35;;
35917;SDS011;22011;59.912;30.300;2024-03-08T06:34:28;4.03;;;2.33;;
35917;SDS011;22011;59.912;30.300;2024-03-08T06:36:55;3.13;;;2.20;;
35917;SDS011;22011;59.912;30.300;2024-03-08T06:39:26;4.07;;;2.25;;
35917;SDS011;22011;59.912;30.300;2024-03-08T06:41:57;3.10;;;2.13;;
35917;SDS011;22011;59.912;30.300;2024-03-08T06:44:25;2.72;;;2.20;;
35917;SDS011;22011;59.912;30.300;2024-03-08T06:46:53;2.22;;;1.40;;
35917;SDS011;22011;59.912;30.300;2024-03-08T06:49:21;2.38;;;1.80;;
35917;SDS011;22011;59.912;30.300;2024-03-08T06:51:48;2.95;;;1.90;;
35917;SDS011;22011;59.912;30.300;2024-03-08T06:54:16;3.50;;;2.05;;
35917;SDS011;22011;59.912;30.300;2024-03-08T06:56:44;2.20;;;1.50;;
35917;SDS011;22011;59.912;30.300;2024-03-08T06:59:13;2.72;;;1.83;;
35917;SDS011;22011;59.912;30.300;2024-03-08T07:01:40;2.28;;;2.00;;
35917;SDS011;22011;59.912;30.300;2024-03-08T07:04:08;2.58;;;1.50;;
35917;SDS011;22011;59.912;30.300;2024-03-08T07:06:37;3.22;;;2.28;;
35917;SDS011;22011;59.912;30.300;2024-03-08T07:09:06;3.95;;;1.58;;
35917;SDS011;22011;59.912;30.300;2024-03-08T07:11:34;2.25;;;1.33;;
35917;SDS011;22011;59.912;30.300;2024-03-08T07:14:02;3.08;;;2.13;;
35917;SDS011;22011;59.912;30.300;2024-03-08T07:16:33;4.00;;;2.00;;
35917;SDS011;22011;59.912;30.300;2024-03-08T07:19:01;2.08;;;1.80;;
35917;SDS011;22011;59.912;30.300;2024-03-08T07:21:29;10.60;;;2.90;;
35917;SDS011;22011;59.912;30.300;2024-03-08T07:23:56;2.35;;;1.60;;
35917;SDS011;22011;59.912;30.300;2024-03-08T07:26:46;2.67;;;1.75;;
35917;SDS011;22011;59.912;30.300;2024-03-08T07:29:15;3.78;;;1.73;;
35917;SDS011;22011;59.912;30.300;2024-03-08T07:31:44;2.05;;;1.30;;
35917;SDS011;22011;59.912;30.300;2024-03-08T07:34:21;3.33;;;1.65;;
35917;SDS011;22011;59.912;30.300;2024-03-08T07:36:49;9.65;;;1.50;;
35917;SDS011;22011;59.912;30.300;2024-03-08T07:39:16;3.13;;;1.52;;
35917;SDS011;22011;59.912;30.300;2024-03-08T07:41:44;5.22;;;1.85;;
35917;SDS011;22011;59.912;30.300;2024-03-08T07:44:12;4.50;;;1.88;;
35917;SDS011;22011;59.912;30.300;2024-03-08T07:46:40;3.25;;;1.70;;
35917;SDS011;22011;59.912;30.300;2024-03-08T07:49:09;2.22;;;1.48;;
35917;SDS011;22011;59.912;30.300;2024-03-08T07:51:37;1.80;;;1.45;;
35917;SDS011;22011;59.912;30.300;2024-03-08T07:54:05;2.03;;;1.45;;
35917;SDS011;22011;59.912;30.300;2024-03-08T07:56:35;8.07;;;1.87;;
35917;SDS011;22011;59.912;30.300;2024-03-08T07:59:03;2.33;;;1.58;;
35917;SDS011;22011;59.912;30.300;2024-03-08T08:01:31;5.07;;;2.00;;
35917;SDS011;22011;59.912;30.300;2024-03-08T08:03:59;3.35;;;2.20;;
35917;SDS011;22011;59.912;30.300;2024-03-08T08:06:29;3.55;;;1.88;;
35917;SDS011;22011;59.912;30.300;2024-03-08T08:08:59;6.18;;;2.00;;
35917;SDS011;22011;59.912;30.300;2024-03-08T08:11:27;3.33;;;1.55;;
35917;SDS011;22011;59.912;30.300;2024-03-08T08:13:55;6.28;;;1.63;;
35917;SDS011;22011;59.912;30.300;2024-03-08T08:16:23;3.85;;;2.00;;
35917;SDS011;22011;59.912;30.300;2024-03-08T08:18:51;4.65;;;1.90;;
35917;SDS011;22011;59.912;30.300;2024-03-08T08:21:20;3.00;;;1.88;;
35917;SDS011;22011;59.912;30.300;2024-03-08T08:23:49;3.83;;;1.80;;
35917;SDS011;22011;59.912;30.300;2024-03-08T08:26:17;5.60;;;2.08;;
35917;SDS011;22011;59.912;30.300;2024-03-08T08:28:45;6.63;;;1.80;;
35917;SDS011;22011;59.912;30.300;2024-03-08T08:31:13;5.32;;;3.42;;
35917;SDS011;22011;59.912;30.300;2024-03-08T08:33:40;5.93;;;2.50;;
35917;SDS011;22011;59.912;30.300;2024-03-08T08:36:09;3.88;;;1.98;;
35917;SDS011;22011;59.912;30.300;2024-03-08T08:38:37;10.25;;;1.92;;
35917;SDS011;22011;59.912;30.300;2024-03-08T08:41:06;2.58;;;1.88;;
35917;SDS011;22011;59.912;30.300;2024-03-08T08:43:34;7.47;;;2.10;;
35917;SDS011;22011;59.912;30.300;2024-03-08T08:46:01;5.88;;;1.60;;
35917;SDS011;22011;59.912;30.300;2024-03-08T08:48:30;3.88;;;2.13;;
35917;SDS011;22011;59.912;30.300;2024-03-08T08:50:58;3.80;;;2.00;;
35917;SDS011;22011;59.912;30.300;2024-03-08T08:53:26;3.80;;;1.55;;
35917;SDS011;22011;59.912;30.300;2024-03-08T08:55:53;5.78;;;1.98;;
35917;SDS011;22011;59.912;30.300;2024-03-08T08:58:23;3.00;;;1.98;;
35917;SDS011;22011;59.912;30.300;2024-03-08T09:00:51;4.63;;;2.00;;
35917;SDS011;22011;59.912;30.300;2024-03-08T09:03:19;4.43;;;1.73;;
35917;SDS011;22011;59.912;30.300;2024-03-08T09:05:46;7.45;;;2.28;;
35917;SDS011;22011;59.912;30.300;2024-03-08T09:08:14;5.78;;;2.10;;
35917;SDS011;22011;59.912;30.300;2024-03-08T09:10:42;2.63;;;2.00;;
35917;SDS011;22011;59.912;30.300;2024-03-08T09:13:10;7.90;;;2.13;;
35917;SDS011;22011;59.912;30.300;2024-03-08T09:15:39;3.88;;;1.90;;
35917;SDS011;22011;59.912;30.300;2024-03-08T09:18:07;7.20;;;2.30;;
35917;SDS011;22011;59.912;30.300;2024-03-08T09:20:36;9.38;;;2.28;;
35917;SDS011;22011;59.912;30.300;2024-03-08T09:23:03;7.03;;;1.95;;
35917;SDS011;22011;59.912;30.300;2024-03-08T09:25:31;10.40;;;2.05;;
35917;SDS011;22011;59.912;30.300;2024-03-08T09:27:59;3.92;;;1.70;;
35917;SDS011;22011;59.912;30.300;2024-03-08T09:30:26;9.55;;;2.20;;
35917;SDS011;22011;59.912;30.300;2024-03-08T09:32:56;7.55;;;1.65;;
35917;SDS011;22011;59.912;30.300;2024-03-08T09:35:23;2.72;;;1.60;;
35917;SDS011;22011;59.912;30.300;2024-03-08T09:37:51;3.47;;;1.63;;
35917;SDS011;22011;59.912;30.300;2024-03-08T09:40:20;4.00;;;1.85;;
35917;SDS011;22011;59.912;30.300;2024-03-08T09:42:50;3.55;;;1.60;;
35917;SDS011;22011;59.912;30.300;2024-03-08T09:45:20;3.28;;;1.95;;
35917;SDS011;22011;59.912;30.300;2024-03-08T09:47:49;3.78;;;1.85;;
35917;SDS011;22011;59.912;30.300;2024-03-08T09:50:20;5.35;;;2.03;;
35917;SDS011;22011;59.912;30.300;2024-03-08T09:52:49;3.63;;;1.80;;
35917;SDS011;22011;59.912;30.300;2024-03-08T09:55:19;3.53;;;1.73;;
35917;SDS011;22011;59.912;30.300;2024-03-08T09:57:48;3.03;;;1.52;;
35917;SDS011;22011;59.912;30.300;2024-03-08T10:00:32;4.00;;;1.67;;
35917;SDS011;22011;59.912;30.300;2024-03-08T10:03:00;3.78;;;1.42;;
35917;SDS011;22011;59.912;30.300;2024-03-08T10:05:31;3.50;;;1.60;;
35917;SDS011;22011;59.912;30.300;2024-03-08T10:08:00;1.70;;;1.40;;
35917;SDS011;22011;59.912;30.300;2024-03-08T10:10:28;2.90;;;1.58;;
35917;SDS011;22011;59.912;30.300;2024-03-08T10:12:56;3.05;;;1.35;;
35917;SDS011;22011;59.912;30.300;2024-03-08T10:15:26;8.27;;;1.90;;
35917;SDS011;22011;59.912;30.300;2024-03-08T10:17:55;5.63;;;1.90;;
35917;SDS011;22011;59.912;30.300;2024-03-08T10:20:23;6.47;;;1.90;;
35917;SDS011;22011;59.912;30.300;2024-03-08T10:22:54;6.18;;;1.75;;
35917;SDS011;22011;59.912;30.300;2024-03-08T10:25:22;6.60;;;1.70;;
35917;SDS011;22011;59.912;30.300;2024-03-08T10:27:51;4.32;;;1.70;;
35917;SDS011;22011;59.912;30.300;2024-03-08T10:30:19;5.70;;;2.20;;
35917;SDS011;22011;59.912;30.300;2024-03-08T10:32:50;11.25;;;3.00;;
35917;SDS011;22011;59.912;30.300;2024-03-08T10:35:20;4.32;;;1.85;;
35917;SDS011;22011;59.912;30.300;2024-03-08T10:37:52;4.88;;;2.10;;
35917;SDS011;22011;59.912;30.300;2024-03-08T10:40:26;4.65;;;1.92;;
35917;SDS011;22011;59.912;30.300;2024-03-08T10:43:12;5.65;;;2.40;;
35917;SDS011;22011;59.912;30.300;2024-03-08T10:45:54;6.32;;;1.70;;
35917;SDS011;22011;59.912;30.300;2024-03-08T10:48:36;11.98;;;3.20;;
35917;SDS011;22011;59.912;30.300;2024-03-08T10:51:11;12.25;;;5.10;;
35917;SDS011;22011;59.912;30.300;2024-03-08T10:53:57;7.22;;;3.13;;
35917;SDS011;22011;59.912;30.300;2024-03-08T10:56:29;3.63;;;1.40;;
35917;SDS011;22011;59.912;30.300;2024-03-08T10:58:58;2.75;;;1.50;;
35917;SDS011;22011;59.912;30.300;2024-03-08T11:01:31;2.33;;;1.40;;
35917;SDS011;22011;59.912;30.300;2024-03-08T11:03:59;6.30;;;1.55;;
35917;SDS011;22011;59.912;30.300;2024-03-08T11:06:42;8.65;;;1.90;;
35917;SDS011;22011;59.912;30.300;2024-03-08T11:09:32;9.07;;;1.85;;
35917;SDS011;22011;59.912;30.300;2024-03-08T11:14:55;4.30;;;1.65;;
35917;SDS011;22011;59.912;30.300;2024-03-08T11:17:40;3.85;;;2.00;;
35917;SDS011;22011;59.912;30.300;2024-03-08T11:20:12;6.68;;;1.60;;
35917;SDS011;22011;59.912;30.300;2024-03-08T11:22:50;5.78;;;2.08;;
35917;SDS011;22011;59.912;30.300;2024-03-08T11:25:32;6.35;;;1.70;;
35917;SDS011;22011;59.912;30.300;2024-03-08T11:28:12;12.85;;;1.40;;
35917;SDS011;22011;59.912;30.300;2024-03-08T11:30:44;8.65;;;1.42;;
35917;SDS011;22011;59.912;30.300;2024-03-08T11:33:14;14.85;;;1.90;;
35917;SDS011;22011;59.912;30.300;2024-03-08T11:35:44;8.40;;;1.73;;
35917;SDS011;22011;59.912;30.300;2024-03-08T11:38:17;1.50;;;1.30;;
35917;SDS011;22011;59.912;30.300;2024-03-08T11:40:50;4.35;;;1.42;;
35917;SDS011;22011;59.912;30.300;2024-03-08T11:43:19;4.95;;;1.38;;
35917;SDS011;22011;59.912;30.300;2024-03-08T11:45:48;5.70;;;1.73;;
35917;SDS011;22011;59.912;30.300;2024-03-08T11:48:21;2.58;;;1.70;;
35917;SDS011;22011;59.912;30.300;2024-03-08T11:50:58;2.53;;;1.70;;
35917;SDS011;22011;59.912;30.300;2024-03-08T11:53:27;5.45;;;1.70;;
35917;SDS011;22011;59.912;30.300;2024-03-08T11:56:06;5.80;;;1.70;;
35917;SDS011;22011;59.912;30.300;2024-03-08T11:58:35;2.05;;;1.50;;
35917;SDS011;22011;59.912;30.300;2024-03-08T12:01:03;3.72;;;1.80;;
35917;SDS011;22011;59.912;30.300;2024-03-08T12:03:33;3.37;;;1.97;;
35917;SDS011;22011;59.912;30.300;2024-03-08T12:06:01;2.75;;;1.75;;
35917;SDS011;22011;59.912;30.300;2024-03-08T12:08:30;5.47;;;2.10;;
35917;SDS011;22011;59.912;30.300;2024-03-08T12:10:58;9.52;;;2.05;;
35917;SDS011;22011;59.912;30.300;2024-03-08T12:13:28;5.15;;;3.03;;
35917;SDS011;22011;59.912;30.300;2024-03-08T12:15:58;4.18;;;2.17;;
35917;SDS011;22011;59.912;30.300;2024-03-08T12:18:26;6.75;;;2.60;;
35917;SDS011;22011;59.912;30.300;2024-03-08T12:21:03;4.22;;;2.40;;
35917;SDS011;22011;59.912;30.300;2024-03-08T12:23:33;5.57;;;2.75;;
35917;SDS011;22011;59.912;30.300;2024-03-08T12:26:09;3.38;;;1.95;;
35917;SDS011;22011;59.912;30.300;2024-03-08T12:31:11;4.80;;;2.00;;
35917;SDS011;22011;59.912;30.300;2024-03-08T12:33:49;7.78;;;2.80;;
35917;SDS011;22011;59.912;30.300;2024-03-08T12:36:19;4.22;;;1.67;;
35917;SDS011;22011;59.912;30.300;2024-03-08T12:38:48;7.05;;;1.95;;
35917;SDS011;22011;59.912;30.300;2024-03-08T12:41:16;3.35;;;2.13;;
35917;SDS011;22011;59.912;30.300;2024-03-08T12:43:47;3.67;;;1.15;;
35917;SDS011;22011;59.912;30.300;2024-03-08T12:46:17;2.42;;;1.15;;
35917;SDS011;22011;59.912;30.300;2024-03-08T12:48:46;2.15;;;1.20;;
35917;SDS011;22011;59.912;30.300;2024-03-08T12:51:14;2.85;;;1.13;;
35917;SDS011;22011;59.912;30.300;2024-03-08T12:56:13;1.05;;;0.93;;
35917;SDS011;22011;59.912;30.300;2024-03-08T12:58:48;19.08;;;1.45;;
35917;SDS011;22011;59.912;30.300;2024-03-08T13:01:17;7.15;;;0.90;;
35917;SDS011;22011;59.912;30.300;2024-03-08T13:03:44;1.48;;;0.85;;
35917;SDS011;22011;59.912;30.300;2024-03-08T13:06:12;2.45;;;0.88;;
35917;SDS011;22011;59.912;30.300;2024-03-08T13:08:40;6.90;;;1.10;;
35917;SDS011;22011;59.912;30.300;2024-03-08T13:11:09;2.95;;;1.15;;
35917;SDS011;22011;59.912;30.300;2024-03-08T13:13:38;8.07;;;0.77;;
35917;SDS011;22011;59.912;30.300;2024-03-08T13:16:07;7.22;;;1.08;;
35917;SDS011;22011;59.912;30.300;2024-03-08T13:18:35;1.83;;;0.98;;
35917;SDS011;22011;59.912;30.300;2024-03-08T13:21:04;6.85;;;1.30;;
35917;SDS011;22011;59.912;30.300;2024-03-08T13:23:33;7.20;;;1.08;;
35917;SDS011;22011;59.912;30.300;2024-03-08T13:26:05;1.85;;;1.00;;
35917;SDS011;22011;59.912;30.300;2024-03-08T13:28:33;3.83;;;1.10;;
35917;SDS011;22011;59.912;30.300;2024-03-08T13:31:03;7.30;;;0.90;;
35917;SDS011;22011;59.912;30.300;2024-03-08T13:33:34;9.43;;;1.52;;
35917;SDS011;22011;59.912;30.300;2024-03-08T13:36:02;2.85;;;1.25;;
35917;SDS011;22011;59.912;30.300;2024-03-08T13:38:32;1.45;;;1.05;;
35917;SDS011;22011;59.912;30.300;2024-03-08T13:41:03;5.35;;;1.10;;
35917;SDS011;22011;59.912;30.300;2024-03-08T13:43:31;3.70;;;1.40;;
35917;SDS011;22011;59.912;30.300;2024-03-08T13:46:00;3.38;;;1.38;;
35917;SDS011;22011;59.912;30.300;2024-03-08T13:48:27;1.98;;;1.13;;
35917;SDS011;22011;59.912;30.300;2024-03-08T13:50:57;2.92;;;1.08;;
35917;SDS011;22011;59.912;30.300;2024-03-08T13:53:26;2.63;;;0.90;;
35917;SDS011;22011;59.912;30.300;2024-03-08T13:55:53;2.95;;;1.05;;
35917;SDS011;22011;59.912;30.300;2024-03-08T13:58:22;6.38;;;0.80;;
35917;SDS011;22011;59.912;30.300;2024-03-08T14:00:50;2.83;;;0.77;;
35917;SDS011;22011;59.912;30.300;2024-03-08T14:03:18;1.75;;;0.70;;
35917;SDS011;22011;59.912;30.300;2024-03-08T14:05:46;2.97;;;0.98;;
35917;SDS011;22011;59.912;30.300;2024-03-08T14:08:16;1.75;;;0.80;;
35917;SDS011;22011;59.912;30.300;2024-03-08T14:10:43;4.50;;;1.02;;
35917;SDS011;22011;59.912;30.300;2024-03-08T14:13:12;1.48;;;1.00;;
35917;SDS011;22011;59.912;30.300;2024-03-08T14:15:41;10.82;;;1.17;;
35917;SDS011;22011;59.912;30.300;2024-03-08T14:18:12;3.13;;;1.23;;
35917;SDS011;22011;59.912;30.300;2024-03-08T14:20:40;2.63;;;1.27;;
35917;SDS011;22011;59.912;30.300;2024-03-08T14:23:08;2.53;;;1.30;;
35917;SDS011;22011;59.912;30.300;2024-03-08T14:25:37;4.88;;;1.70;;
35917;SDS011;22011;59.912;30.300;2024-03-08T14:28:05;5.78;;;1.40;;
35917;SDS011;22011;59.912;30.300;2024-03-08T14:30:34;5.93;;;1.20;;
35917;SDS011;22011;59.912;30.300;2024-03-08T14:33:04;1.45;;;0.70;;
35917;SDS011;22011;59.912;30.300;2024-03-08T14:35:34;4.07;;;1.35;;
35917;SDS011;22011;59.912;30.300;2024-03-08T14:38:02;2.05;;;0.90;;
35917;SDS011;22011;59.912;30.300;2024-03-08T14:40:30;3.25;;;1.23;;
35917;SDS011;22011;59.912;30.300;2024-03-08T14:43:01;1.92;;;1.13;;
35917;SDS011;22011;59.912;30.300;2024-03-08T14:45:30;6.95;;;0.77;;
35917;SDS011;22011;59.912;30.300;2024-03-08T14:47:58;4.55;;;0.98;;
35917;SDS011;22011;59.912;30.300;2024-03-08T14:50:25;4.45;;;1.27;;
35917;SDS011;22011;59.912;30.300;2024-03-08T14:52:53;9.38;;;1.13;;
35917;SDS011;22011;59.912;30.300;2024-03-08T14:55:21;4.30;;;0.98;;
35917;SDS011;22011;59.912;30.300;2024-03-08T14:57:49;2.33;;;0.90;;